Airfield :
LOGIN :

Register | Disclaimer

   EN    FR    IT 

 










Legend :    VFR   Marginal VFR   IFR   Intensive IFR   Very Intensive IFR
Visi :
Ceiling :
>= 8 km
>= 3000ft
5 to 8 km
1000 to 3000 ft
1500m to 5 km
500 to 1000 ft
800 to 1500m
200 to 500 ft
< 800m
< 200 ft
Symbols :   Thunderstorms  Fog  Heavy snow  Heavy precipitations  Wind > 20 kt
SIGMETs :     Misc.  Thunderstorms  Icing  Turbulence  Mountain Waves  Volcanic Ashes







- Airport Elevation : 65 ft
- IATA code : PIK
- Download approach charts


EGPK - Glasgow Prestwick

CURRENT METAR :
  • 260950Z 25010KT 9999 FEW018 BKN040 09/06 Q1032

EXPIRED METARs :
  • 260920Z 24011KT 9999 FEW018 BKN040 09/06 Q1033
  • 260850Z 24009KT 9999 FEW018 BKN040 08/06 Q1033
  • 260820Z 25011KT 9999 FEW018 SCT030 BKN045 08/05 Q1032
  • 260750Z 25011KT 9999 FEW018 SCT030 08/05 Q1032
  • 260720Z 26012KT 9999 SCT030 08/05 Q1032

TAF TAF EGPK
Valid from the 26 at 06:00 until the 27 at 06:00 UTC


260454Z 2606/2706 24009KT 9999 SCT020 BKN035
TEMPO 2606/2615 25015G25KT
PROB30
TEMPO 2606/2706 8000 -RA BKN014
No reported NOTAMs for that airfield.



MET'MAP, your aeronautical weather chart ! - Copyright ORBIFLY December 2007 - Disclaimer

ORBIFLY MET'MAP TEAM :

Programming & Development : Alexandra Zaïnal
Concept & Development : Baudouin d'Aumeries
Co-Development & Prog : Marc-Olivier Méhu
Technical & hardware support : Manuel Goepfert

Contact : metmap@orbifly.com




SOURCES & CREDITS :

   NOAA